Time;durP1;ratioP1;P1;durP2;ratioP2;P2;SDS_P1;SDS_P2;PMS_P1;PMS_P2;Temp;Humidity;BMP_temperature;BMP_pressure;BME280_temperature;BME280_humidity;BME280_pressure;Samples;Min_cycle;Max_cycle;Signal;HPM_P1;HPM_P2
2023/09/23 14:19:42;;;;;;;2.80;1.67;;;23.90;50.10;;;;;;6188965;22;1315162;-73
2023/09/23 14:22:08;;;;;;;1.40;1.00;;;23.60;51.10;;;;;;6212106;23;20205;-74
2023/09/23 14:24:35;;;;;;;2.67;1.40;;;23.50;51.50;;;;;;6212426;23;20178;-72
2023/09/23 14:27:02;;;;;;;1.20;1.10;;;23.50;51.60;;;;;;6212469;23;20177;-74
2023/09/23 14:29:29;;;;;;;3.37;0.93;;;23.80;52.10;;;;;;6212154;23;20205;-73
2023/09/23 14:31:56;;;;;;;1.00;0.90;;;23.70;51.60;;;;;;6211910;23;20181;-73
2023/09/23 14:34:23;;;;;;;1.77;1.40;;;23.60;51.80;;;;;;6212276;23;20272;-73
2023/09/23 14:36:53;;;;;;;2.00;1.37;;;23.50;51.60;;;;;;6212484;23;20272;-73
2023/09/23 14:39:21;;;;;;;2.63;1.30;;;23.30;51.10;;;;;;6212087;23;20181;-74
2023/09/23 14:41:48;;;;;;;2.00;1.07;;;23.00;51.60;;;;;;6212261;23;20178;-74
2023/09/23 14:44:15;;;;;;;1.87;1.00;;;23.00;52.00;;;;;;6211695;23;20203;-73
2023/09/23 14:46:42;;;;;;;0.70;0.70;;;23.00;51.40;;;;;;6212321;23;20261;-72
2023/09/23 14:49:08;;;;;;;2.10;1.30;;;22.90;51.50;;;;;;6211863;23;20522;-74
2023/09/23 14:51:36;;;;;;;2.87;2.17;;;22.90;51.40;;;;;;6211764;23;20225;-74
2023/09/23 14:54:05;;;;;;;2.07;1.03;;;22.90;51.50;;;;;;6212302;23;20182;-74
2023/09/23 14:56:31;;;;;;;4.27;1.50;;;22.80;51.40;;;;;;6212030;23;20666;-74
2023/09/23 14:58:58;;;;;;;2.23;1.03;;;22.90;51.50;;;;;;6211668;23;20261;-72
2023/09/23 15:01:25;;;;;;;2.90;1.10;;;23.10;51.60;;;;;;6211595;23;20205;-73
2023/09/23 15:03:53;;;;;;;1.77;1.30;;;23.40;51.30;;;;;;6211900;23;20178;-73
2023/09/23 15:06:20;;;;;;;1.80;1.20;;;23.50;51.40;;;;;;6212434;23;20590;-73
2023/09/23 15:08:47;;;;;;;2.00;1.40;;;23.50;51.40;;;;;;6211960;23;20503;-73
2023/09/23 15:11:17;;;;;;;2.00;1.20;;;23.50;51.50;;;;;;6211888;23;20693;-73
2023/09/23 15:13:44;;;;;;;3.73;1.40;;;23.50;51.80;;;;;;6211779;23;20208;-73
2023/09/23 15:16:10;;;;;;;1.60;1.07;;;23.50;51.80;;;;;;6211684;23;20194;-73
2023/09/23 15:18:38;;;;;;;1.93;1.47;;;23.60;51.50;;;;;;6212117;23;20206;-73
2023/09/23 15:21:07;;;;;;;1.53;1.23;;;23.70;51.80;;;;;;6211779;23;20209;-73
2023/09/23 15:23:34;;;;;;;1.83;1.10;;;24.20;51.30;;;;;;6211963;23;20186;-73
2023/09/23 15:26:01;;;;;;;1.40;0.93;;;24.50;50.50;;;;;;6211019;23;20201;-73
2023/09/23 15:28:29;;;;;;;1.53;1.27;;;24.70;50.40;;;;;;6211461;23;20236;-72
2023/09/23 15:30:57;;;;;;;2.40;1.20;;;25.00;50.20;;;;;;6211331;23;20182;-73
2023/09/23 15:33:24;;;;;;;3.10;0.90;;;25.10;49.90;;;;;;6211332;23;20252;-73
2023/09/23 15:35:52;;;;;;;2.00;1.00;;;24.90;49.70;;;;;;6211433;23;20256;-73
2023/09/23 15:38:19;;;;;;;3.57;1.07;;;24.80;50.10;;;;;;6211868;23;20174;-74
2023/09/23 15:40:45;;;;;;;1.20;0.70;;;24.80;51.30;;;;;;6211071;23;20259;-74
2023/09/23 15:43:14;;;;;;;2.30;1.10;;;24.70;51.50;;;;;;6211589;23;20517;-73
2023/09/23 15:45:43;;;;;;;1.40;1.27;;;24.60;51.20;;;;;;6211916;23;20185;-73
2023/09/23 15:48:10;;;;;;;1.37;1.10;;;24.50;52.20;;;;;;6211447;23;20642;-73
2023/09/23 15:50:37;;;;;;;1.30;1.03;;;24.50;52.60;;;;;;6211361;23;20562;-73
2023/09/23 15:53:05;;;;;;;1.67;1.20;;;24.40;52.70;;;;;;6211677;23;20271;-73
2023/09/23 15:55:33;;;;;;;2.30;1.20;;;24.30;53.10;;;;;;6211495;23;20269;-74
2023/09/23 15:57:59;;;;;;;1.67;1.00;;;24.20;52.90;;;;;;6184967;23;20228;-73
2023/09/23 16:00:26;;;;;;;1.20;1.00;;;24.20;52.90;;;;;;6210879;23;20225;-73
2023/09/23 16:02:54;;;;;;;1.80;1.20;;;24.00;52.80;;;;;;6209459;23;20569;-73
2023/09/23 16:05:21;;;;;;;1.13;1.00;;;23.90;52.80;;;;;;6209254;23;20177;-73
2023/09/23 16:07:48;;;;;;;1.47;1.00;;;23.80;53.90;;;;;;6209245;23;20189;-73
2023/09/23 16:10:15;;;;;;;2.07;1.10;;;23.80;54.40;;;;;;6208640;23;20187;-73
2023/09/23 16:12:42;;;;;;;2.90;1.00;;;23.80;53.50;;;;;;6209170;23;20265;-74
2023/09/23 16:15:09;;;;;;;1.23;1.00;;;23.70;53.40;;;;;;6209547;23;20204;-74
2023/09/23 16:17:36;;;;;;;2.77;1.10;;;23.70;53.50;;;;;;6210470;23;20181;-73
2023/09/23 16:20:05;;;;;;;5.03;1.27;;;23.60;53.40;;;;;;6210666;23;20202;-73
2023/09/23 16:22:32;;;;;;;1.90;1.13;;;23.50;53.50;;;;;;6210569;23;20213;-74
2023/09/23 16:25:00;;;;;;;1.40;1.20;;;23.50;54.00;;;;;;6210395;23;20264;-73
2023/09/23 16:27:27;;;;;;;1.20;0.77;;;23.50;54.10;;;;;;6211573;23;20181;-73
2023/09/23 16:29:54;;;;;;;2.03;1.03;;;23.40;54.10;;;;;;6211175;23;20208;-73
2023/09/23 16:32:21;;;;;;;1.47;1.13;;;23.40;54.40;;;;;;6210679;23;20190;-73
2023/09/23 16:34:48;;;;;;;1.40;1.17;;;23.30;54.00;;;;;;6211587;23;20185;-73
2023/09/23 16:37:18;;;;;;;2.43;1.07;;;23.20;54.30;;;;;;6211405;23;20184;-73
2023/09/23 16:39:45;;;;;;;1.90;1.40;;;23.20;54.00;;;;;;6210912;23;20190;-73
2023/09/23 16:42:12;;;;;;;2.07;1.20;;;23.10;54.00;;;;;;6210938;23;20265;-72
2023/09/23 16:44:39;;;;;;;2.47;1.03;;;23.10;54.20;;;;;;6210818;23;20257;-72
2023/09/23 16:47:06;;;;;;;2.13;1.50;;;23.00;54.10;;;;;;6210331;23;20188;-73
2023/09/23 16:49:33;;;;;;;1.07;1.00;;;22.90;54.00;;;;;;6210791;23;20205;-72
2023/09/23 16:52:01;;;;;;;2.17;1.30;;;22.90;53.50;;;;;;6210830;23;20188;-73
2023/09/23 16:54:29;;;;;;;1.40;0.90;;;22.80;53.90;;;;;;6210257;23;20273;-74
2023/09/23 16:56:56;;;;;;;1.57;0.93;;;22.70;54.20;;;;;;6210780;23;20209;-72
2023/09/23 16:59:23;;;;;;;1.67;1.27;;;22.70;54.00;;;;;;6210970;23;20174;-74
2023/09/23 17:01:50;;;;;;;2.00;1.27;;;22.60;54.00;;;;;;6157548;23;20181;-74
2023/09/23 17:04:17;;;;;;;3.27;1.30;;;22.50;54.10;;;;;;6210632;23;20255;-74
2023/09/23 17:06:44;;;;;;;1.67;1.17;;;22.50;54.20;;;;;;6211068;23;20280;-74
2023/09/23 17:09:11;;;;;;;1.73;1.20;;;22.40;54.20;;;;;;6210393;23;20198;-74
2023/09/23 17:11:39;;;;;;;2.00;1.13;;;22.40;54.40;;;;;;6210599;23;20566;-73
2023/09/23 17:14:06;;;;;;;1.97;1.17;;;22.30;54.20;;;;;;6210123;23;20186;-74
2023/09/23 17:16:33;;;;;;;1.97;0.97;;;22.20;54.00;;;;;;6184235;23;20560;-74
2023/09/23 17:19:02;;;;;;;1.53;1.20;;;22.00;54.40;;;;;;6210538;23;20260;-74
2023/09/23 17:21:29;;;;;;;1.27;1.00;;;22.00;55.00;;;;;;6210114;23;20201;-73
2023/09/23 17:23:56;;;;;;;2.33;1.10;;;22.00;55.50;;;;;;6210109;23;20277;-73
2023/09/23 17:26:22;;;;;;;2.27;1.30;;;21.90;55.70;;;;;;6210352;23;20184;-73
2023/09/23 17:28:51;;;;;;;3.23;1.40;;;21.70;56.10;;;;;;6209856;23;20236;-73
2023/09/23 17:31:17;;;;;;;2.97;1.40;;;21.70;56.60;;;;;;6210009;23;20206;-74
2023/09/23 17:33:44;;;;;;;1.77;1.40;;;21.60;56.90;;;;;;6210541;23;20178;-73
2023/09/23 17:36:11;;;;;;;1.53;1.20;;;21.60;57.10;;;;;;6210664;23;20177;-73
2023/09/23 17:38:38;;;;;;;1.77;1.50;;;21.50;57.40;;;;;;6210268;23;20257;-73
2023/09/23 17:41:05;;;;;;;2.17;1.20;;;21.40;57.70;;;;;;6209827;23;20652;-73
2023/09/23 17:43:31;;;;;;;1.53;1.20;;;21.40;58.00;;;;;;6209883;23;20185;-74
2023/09/23 17:46:03;;;;;;;1.57;1.20;;;21.30;58.20;;;;;;6210230;23;20228;-74
2023/09/23 17:48:29;;;;;;;3.33;1.50;;;21.20;58.40;;;;;;6210375;23;20190;-72
2023/09/23 17:50:57;;;;;;;2.13;1.30;;;21.20;58.50;;;;;;6209746;23;20186;-73
2023/09/23 17:53:24;;;;;;;2.20;1.30;;;21.10;58.80;;;;;;6210166;23;20273;-72
2023/09/23 17:55:51;;;;;;;2.90;1.47;;;21.10;59.10;;;;;;6210589;23;20187;-73
2023/09/23 17:58:18;;;;;;;1.27;1.17;;;21.10;59.30;;;;;;6183763;23;20182;-73
2023/09/23 18:00:45;;;;;;;1.20;1.10;;;21.10;59.50;;;;;;6209481;23;20232;-73
2023/09/23 18:03:13;;;;;;;3.97;1.70;;;21.10;59.70;;;;;;6210032;23;20178;-74
2023/09/23 18:05:40;;;;;;;2.17;1.43;;;21.10;60.70;;;;;;6208523;23;20233;-74
2023/09/23 18:08:07;;;;;;;1.47;1.30;;;21.10;60.00;;;;;;6210442;23;20261;-73
2023/09/23 18:10:35;;;;;;;2.40;1.60;;;21.10;60.20;;;;;;6210131;23;20207;-73
2023/09/23 18:13:01;;;;;;;2.00;1.40;;;21.10;60.40;;;;;;6208556;23;20187;-73
2023/09/23 18:15:29;;;;;;;1.97;1.40;;;21.10;60.50;;;;;;6210452;23;20212;-73
2023/09/23 18:17:56;;;;;;;1.60;1.20;;;21.00;60.70;;;;;;6210298;23;20565;-73
2023/09/23 18:20:24;;;;;;;2.47;1.40;;;21.00;60.90;;;;;;6209584;23;20212;-73
2023/09/23 18:22:51;;;;;;;3.40;1.70;;;21.00;61.30;;;;;;6209939;23;20630;-73
2023/09/23 18:25:18;;;;;;;2.10;1.90;;;21.00;61.60;;;;;;6210270;23;20211;-73
2023/09/23 18:27:45;;;;;;;3.93;2.30;;;20.90;61.90;;;;;;6209921;23;20273;-73
2023/09/23 18:30:14;;;;;;;3.13;2.40;;;20.80;62.40;;;;;;6210356;23;20285;-73
2023/09/23 18:32:41;;;;;;;5.07;3.20;;;20.80;62.90;;;;;;6209976;23;20499;-73
2023/09/23 18:35:08;;;;;;;4.10;3.60;;;20.80;63.40;;;;;;6210069;23;20194;-73
2023/09/23 18:37:37;;;;;;;3.80;2.50;;;20.80;63.70;;;;;;6210647;23;20271;-73
2023/09/23 18:40:04;;;;;;;2.20;2.00;;;20.70;63.60;;;;;;6209951;23;20585;-73
2023/09/23 18:42:31;;;;;;;1.87;1.73;;;20.70;63.80;;;;;;6209710;23;20182;-72
2023/09/23 18:44:58;;;;;;;2.03;1.60;;;20.70;63.60;;;;;;6210015;23;20654;-73
2023/09/23 18:47:25;;;;;;;2.67;1.53;;;20.60;63.90;;;;;;6210167;23;20178;-73
2023/09/23 18:49:52;;;;;;;2.30;1.90;;;20.50;64.20;;;;;;6209532;23;20197;-73
2023/09/23 18:52:19;;;;;;;2.20;1.80;;;20.50;64.80;;;;;;6209917;23;20281;-73
2023/09/23 18:54:47;;;;;;;2.23;1.80;;;20.40;65.00;;;;;;6209924;23;20184;-73
2023/09/23 18:57:14;;;;;;;2.83;1.97;;;20.30;65.10;;;;;;6209633;23;20221;-73
2023/09/23 18:59:41;;;;;;;4.57;2.60;;;20.30;65.20;;;;;;6210357;23;20178;-72
2023/09/23 19:02:09;;;;;;;3.63;2.50;;;20.40;65.70;;;;;;6211705;23;20268;-74
2023/09/23 19:04:35;;;;;;;3.07;2.50;;;20.30;65.90;;;;;;6211388;23;20185;-73
2023/09/23 19:07:02;;;;;;;2.97;2.30;;;20.40;65.90;;;;;;6211742;23;20657;-73
2023/09/23 19:09:31;;;;;;;5.47;2.93;;;20.30;65.60;;;;;;6211553;23;20248;-73
2023/09/23 19:11:59;;;;;;;4.77;3.10;;;20.30;65.50;;;;;;6211556;23;20166;-74
2023/09/23 19:14:26;;;;;;;4.20;3.27;;;20.20;65.70;;;;;;6211979;23;20189;-74
2023/09/23 19:16:53;;;;;;;3.97;2.70;;;20.20;65.80;;;;;;6211418;23;20645;-74
2023/09/23 19:19:20;;;;;;;5.47;3.03;;;20.20;65.80;;;;;;6210311;23;20194;-74
2023/09/23 19:21:47;;;;;;;3.37;2.40;;;20.20;66.40;;;;;;6211356;23;20162;-74
2023/09/23 19:24:14;;;;;;;3.37;2.63;;;20.20;66.70;;;;;;6211694;23;20178;-73
2023/09/23 19:26:41;;;;;;;6.20;3.17;;;20.20;67.00;;;;;;6211545;23;20538;-73
2023/09/23 19:29:09;;;;;;;2.53;2.10;;;20.20;66.70;;;;;;6211931;23;20267;-73
2023/09/23 19:31:36;;;;;;;2.73;2.10;;;20.10;67.00;;;;;;6211678;23;20209;-73
2023/09/23 19:34:03;;;;;;;3.03;1.70;;;20.00;67.30;;;;;;6211528;23;20200;-73
2023/09/23 19:36:31;;;;;;;9.40;2.03;;;20.00;67.70;;;;;;6211314;23;20280;-72
2023/09/23 19:38:58;;;;;;;1.90;1.50;;;19.90;68.10;;;;;;6211246;23;20192;-73
2023/09/23 19:41:25;;;;;;;2.30;1.80;;;19.90;68.50;;;;;;6211623;23;20280;-73
2023/09/23 19:43:52;;;;;;;4.80;1.70;;;19.90;68.50;;;;;;6211638;23;20570;-73
2023/09/23 19:46:21;;;;;;;2.10;1.90;;;19.80;68.30;;;;;;6211754;23;20232;-73
2023/09/23 19:48:48;;;;;;;3.00;1.70;;;19.80;68.60;;;;;;6211158;23;20189;-73
2023/09/23 19:51:15;;;;;;;1.70;1.60;;;19.80;68.60;;;;;;6211339;23;20178;-72
2023/09/23 19:53:42;;;;;;;4.53;1.90;;;19.80;68.30;;;;;;6211292;23;20196;-73
2023/09/23 19:56:09;;;;;;;2.10;1.90;;;19.80;68.40;;;;;;6211730;23;20475;-73
2023/09/23 19:58:36;;;;;;;2.37;1.97;;;19.70;68.50;;;;;;6210871;23;20273;-73
2023/09/23 20:01:04;;;;;;;2.67;1.80;;;19.70;68.60;;;;;;6209848;23;20654;-74
2023/09/23 20:03:32;;;;;;;2.10;1.60;;;19.70;68.80;;;;;;6211090;23;20170;-73
2023/09/23 20:05:59;;;;;;;2.27;1.87;;;19.70;68.90;;;;;;6212505;23;20184;-73
2023/09/23 20:08:26;;;;;;;4.53;2.70;;;19.60;68.80;;;;;;6213933;23;20222;-73
2023/09/23 20:10:53;;;;;;;3.27;2.73;;;19.50;69.20;;;;;;6213805;23;20284;-73
2023/09/23 20:13:21;;;;;;;3.27;2.10;;;19.50;69.60;;;;;;6213159;23;20186;-73
2023/09/23 20:15:49;;;;;;;2.93;1.80;;;19.50;69.60;;;;;;6214461;23;20255;-73
2023/09/23 20:18:15;;;;;;;3.00;1.83;;;19.50;69.60;;;;;;6214442;23;20272;-73
2023/09/23 20:20:47;;;;;;;2.80;1.90;;;19.50;69.50;;;;;;6213036;23;20289;-73
2023/09/23 20:23:15;;;;;;;3.73;2.47;;;19.40;69.60;;;;;;6211403;23;20209;-74
2023/09/23 20:25:42;;;;;;;2.13;1.90;;;19.40;69.70;;;;;;6214433;23;20213;-74
2023/09/23 20:28:09;;;;;;;3.20;1.70;;;19.40;70.00;;;;;;6214223;23;20185;-73
2023/09/23 20:30:36;;;;;;;2.03;1.80;;;19.40;70.30;;;;;;6213803;23;20276;-74
2023/09/23 20:33:03;;;;;;;2.10;1.73;;;19.30;70.30;;;;;;6213396;23;20401;-73
2023/09/23 20:35:30;;;;;;;5.27;1.90;;;19.30;70.40;;;;;;6212924;23;20553;-73
2023/09/23 20:37:58;;;;;;;2.60;1.90;;;19.30;70.70;;;;;;6161347;23;20468;-73
2023/09/23 20:40:26;;;;;;;2.73;1.90;;;19.30;71.00;;;;;;6212296;23;20214;-73
2023/09/23 20:42:52;;;;;;;2.47;2.03;;;19.20;71.00;;;;;;6213011;23;20190;-73
2023/09/23 20:45:20;;;;;;;3.23;1.80;;;19.20;71.10;;;;;;6213221;23;20599;-73
2023/09/23 20:47:47;;;;;;;2.20;1.97;;;19.10;71.20;;;;;;6214473;23;20178;-73
2023/09/23 20:50:14;;;;;;;4.50;2.00;;;19.10;71.40;;;;;;6213734;23;20206;-73
2023/09/23 20:52:41;;;;;;;4.30;1.90;;;19.00;71.70;;;;;;6213426;23;20265;-73
2023/09/23 20:55:11;;;;;;;2.67;1.90;;;18.90;71.60;;;;;;6212932;23;20182;-73
2023/09/23 20:57:38;;;;;;;3.57;1.67;;;18.90;72.10;;;;;;6214137;23;20503;-72
2023/09/23 21:00:10;;;;;;;2.80;1.80;;;18.90;72.10;;;;;;6213237;23;20272;-73
2023/09/23 21:02:36;;;;;;;3.20;1.80;;;18.80;71.90;;;;;;6212557;23;20245;-73
2023/09/23 21:05:04;;;;;;;2.23;1.90;;;18.80;71.80;;;;;;6212956;23;20202;-73
2023/09/23 21:07:30;;;;;;;2.13;1.73;;;18.80;71.90;;;;;;6213352;23;20196;-72
2023/09/23 21:09:58;;;;;;;2.60;2.03;;;18.70;71.70;;;;;;6213122;23;20209;-74
2023/09/23 21:12:26;;;;;;;2.97;2.33;;;18.70;71.70;;;;;;6213334;23;20201;-73
2023/09/23 21:14:53;;;;;;;4.07;2.30;;;18.70;71.90;;;;;;6212487;23;20178;-74
2023/09/23 21:17:19;;;;;;;2.47;2.03;;;18.60;71.90;;;;;;6213509;23;20206;-72
2023/09/23 21:19:46;;;;;;;3.03;2.00;;;18.60;72.10;;;;;;6211454;23;20206;-73
2023/09/23 21:22:13;;;;;;;3.33;2.23;;;18.50;72.10;;;;;;6212000;23;20265;-74
2023/09/23 21:24:40;;;;;;;2.93;2.00;;;18.40;72.20;;;;;;6213170;23;20281;-73
2023/09/23 21:27:09;;;;;;;2.10;1.70;;;18.30;72.30;;;;;;6212480;23;20433;-76
2023/09/23 21:29:37;;;;;;;1.80;1.70;;;18.30;72.40;;;;;;6185245;23;20184;-78
2023/09/23 21:32:04;;;;;;;1.90;1.70;;;18.20;72.40;;;;;;6211672;23;20228;-78
2023/09/23 21:34:31;;;;;;;2.30;1.73;;;18.20;72.50;;;;;;6211925;23;20701;-77
2023/09/23 21:36:58;;;;;;;5.17;2.00;;;18.10;72.40;;;;;;6213135;23;20213;-86
2023/09/23 21:39:25;;;;;;;2.93;1.90;;;18.10;72.60;;;;;;6212731;23;20440;-84
2023/09/23 21:41:52;;;;;;;3.80;1.90;;;18.10;72.60;;;;;;6213432;23;20456;-85
2023/09/23 21:44:19;;;;;;;2.13;1.80;;;18.00;72.50;;;;;;6213402;23;20180;-85
2023/09/23 21:46:47;;;;;;;3.53;1.87;;;18.00;72.40;;;;;;6213072;23;20477;-84
2023/09/23 21:49:14;;;;;;;1.70;1.60;;;18.00;72.50;;;;;;6212798;23;20180;-84
2023/09/23 21:51:41;;;;;;;2.40;1.93;;;18.00;72.30;;;;;;6212376;23;20536;-84
2023/09/23 21:54:09;;;;;;;2.40;1.77;;;18.00;72.30;;;;;;6212676;23;20447;-84
2023/09/23 21:56:36;;;;;;;3.03;1.90;;;18.00;72.30;;;;;;6213113;23;20413;-84
2023/09/23 21:59:03;;;;;;;2.17;1.90;;;17.90;72.30;;;;;;6212623;23;20492;-83
2023/09/23 22:01:30;;;;;;;4.07;2.27;;;17.90;72.50;;;;;;6211769;23;20272;-85
2023/09/23 22:03:59;;;;;;;2.43;1.90;;;17.90;72.40;;;;;;6209864;23;20472;-68
2023/09/23 22:06:26;;;;;;;3.23;2.40;;;17.90;72.50;;;;;;6209603;23;20240;-71
2023/09/23 22:08:53;;;;;;;2.03;1.83;;;17.80;73.10;;;;;;6209941;23;20206;-69
2023/09/23 22:11:20;;;;;;;4.53;2.57;;;17.80;72.60;;;;;;6210585;23;20436;-68
2023/09/23 22:13:47;;;;;;;6.07;2.00;;;17.80;72.80;;;;;;6210938;23;20901;-68
2023/09/23 22:16:14;;;;;;;3.03;2.30;;;17.70;72.90;;;;;;6211496;23;20433;-69
2023/09/23 22:18:41;;;;;;;3.10;2.23;;;17.70;73.00;;;;;;6211532;23;20415;-69
2023/09/23 22:21:09;;;;;;;2.40;2.20;;;17.60;72.90;;;;;;6211259;23;20503;-70
2023/09/23 22:23:36;;;;;;;3.40;2.17;;;17.60;73.00;;;;;;6210999;23;20447;-69
2023/09/23 22:26:04;;;;;;;2.50;1.87;;;17.60;72.70;;;;;;6211051;23;20401;-69
2023/09/23 22:28:30;;;;;;;3.97;2.10;;;17.60;72.60;;;;;;6212199;23;20791;-68
2023/09/23 22:30:57;;;;;;;2.43;2.23;;;17.50;72.40;;;;;;6210913;23;20992;-69
2023/09/23 22:33:24;;;;;;;1.80;1.63;;;17.50;72.60;;;;;;6211373;23;20389;-68
2023/09/23 22:35:51;;;;;;;2.00;1.77;;;17.50;72.70;;;;;;6212057;23;20408;-69
2023/09/23 22:38:19;;;;;;;2.10;1.90;;;17.40;72.60;;;;;;6213254;23;20479;-68
2023/09/23 22:40:49;;;;;;;3.60;2.10;;;17.40;72.60;;;;;;6213846;23;20174;-69
2023/09/23 22:43:16;;;;;;;2.40;1.97;;;17.40;72.60;;;;;;6212893;23;20405;-69
2023/09/23 22:45:43;;;;;;;4.13;1.90;;;17.40;72.60;;;;;;6213808;23;20414;-69
2023/09/23 22:48:10;;;;;;;2.53;2.17;;;17.30;72.80;;;;;;6213179;23;20411;-68
2023/09/23 22:50:37;;;;;;;2.67;2.13;;;17.40;72.60;;;;;;6213546;23;20440;-69
2023/09/23 22:53:05;;;;;;;2.60;2.27;;;17.30;72.50;;;;;;6213955;23;20411;-68
2023/09/23 22:55:33;;;;;;;2.63;2.10;;;17.30;72.60;;;;;;6213104;23;20423;-68
2023/09/23 22:58:00;;;;;;;3.73;2.63;;;17.20;72.70;;;;;;6212917;23;20496;-69
2023/09/23 23:00:27;;;;;;;2.77;1.93;;;17.10;72.60;;;;;;6212505;23;20889;-69
2023/09/23 23:02:55;;;;;;;3.33;2.40;;;17.10;72.60;;;;;;6211963;23;20424;-69
2023/09/23 23:05:22;;;;;;;3.17;2.10;;;17.10;72.70;;;;;;6213433;23;20455;-69
2023/09/23 23:07:50;;;;;;;3.67;2.40;;;17.10;73.10;;;;;;6213469;23;20411;-69
2023/09/23 23:10:17;;;;;;;4.03;2.27;;;17.00;73.00;;;;;;6212128;23;21244;-69
2023/09/23 23:12:47;;;;;;;2.83;2.10;;;17.00;73.10;;;;;;6211464;23;20916;-69
2023/09/23 23:15:15;;;;;;;4.43;2.23;;;17.00;73.20;;;;;;6213246;23;20474;-69
2023/09/23 23:17:44;;;;;;;3.17;2.30;;;16.90;73.10;;;;;;6212741;23;20409;-69
2023/09/23 23:20:14;;;;;;;3.30;2.20;;;16.90;73.30;;;;;;6213304;23;20479;-68
2023/09/23 23:22:41;;;;;;;5.47;2.43;;;16.90;73.50;;;;;;6213215;23;20727;-69
2023/09/23 23:25:09;;;;;;;2.50;2.23;;;16.80;73.30;;;;;;6213207;23;20484;-70
2023/09/23 23:27:36;;;;;;;2.40;2.20;;;16.80;73.20;;;;;;6213009;23;20401;-69
2023/09/23 23:30:06;;;;;;;2.50;2.03;;;16.70;73.00;;;;;;6211977;23;20752;-69
2023/09/23 23:32:33;;;;;;;2.87;2.07;;;16.70;72.70;;;;;;6211464;23;20464;-69
2023/09/23 23:35:00;;;;;;;4.00;2.37;;;16.70;72.90;;;;;;6213308;23;20719;-69
2023/09/23 23:37:27;;;;;;;4.07;2.40;;;16.70;73.10;;;;;;6212675;23;20417;-70
2023/09/23 23:39:56;;;;;;;2.40;2.10;;;16.70;73.00;;;;;;6212193;23;20433;-69
2023/09/23 23:42:22;;;;;;;3.50;2.50;;;16.70;73.00;;;;;;6212410;23;20405;-68
2023/09/23 23:44:52;;;;;;;3.87;2.40;;;16.60;73.10;;;;;;6212593;23;20915;-69
2023/09/23 23:47:20;;;;;;;4.53;2.50;;;16.60;73.30;;;;;;6212553;23;20401;-68
2023/09/23 23:49:50;;;;;;;2.60;2.40;;;16.60;73.30;;;;;;6212675;23;20408;-69
2023/09/23 23:52:17;;;;;;;2.97;2.30;;;16.60;73.40;;;;;;6210686;23;20952;-68
2023/09/23 23:54:45;;;;;;;3.80;2.33;;;16.60;73.30;;;;;;6212380;23;20776;-69
2023/09/23 23:57:12;;;;;;;4.40;2.90;;;16.50;73.10;;;;;;6210909;23;20903;-70
2023/09/23 23:59:40;;;;;;;3.77;2.37;;;16.50;73.00;;;;;;6212018;23;20405;-69
